sensor_id;sensor_type;location;lat;lon;timestamp;P1;durP1;ratioP1;P2;durP2;ratioP2
23404;SDS011;11875;49.356;2.718;2023-06-10T00:00:42;9.40;;;5.43;;
23404;SDS011;11875;49.356;2.718;2023-06-10T00:03:09;7.15;;;5.28;;
23404;SDS011;11875;49.356;2.718;2023-06-10T00:05:35;7.43;;;5.13;;
23404;SDS011;11875;49.356;2.718;2023-06-10T00:08:03;6.22;;;5.63;;
23404;SDS011;11875;49.356;2.718;2023-06-10T00:10:35;7.10;;;5.60;;
23404;SDS011;11875;49.356;2.718;2023-06-10T00:13:03;6.07;;;5.47;;
23404;SDS011;11875;49.356;2.718;2023-06-10T00:15:30;6.15;;;5.55;;
23404;SDS011;11875;49.356;2.718;2023-06-10T00:17:56;6.93;;;6.22;;
23404;SDS011;11875;49.356;2.718;2023-06-10T00:20:22;6.35;;;5.75;;
23404;SDS011;11875;49.356;2.718;2023-06-10T00:22:51;8.70;;;5.95;;
23404;SDS011;11875;49.356;2.718;2023-06-10T00:25:17;6.40;;;5.75;;
23404;SDS011;11875;49.356;2.718;2023-06-10T00:27:43;7.43;;;5.80;;
23404;SDS011;11875;49.356;2.718;2023-06-10T00:30:10;8.25;;;6.00;;
23404;SDS011;11875;49.356;2.718;2023-06-10T00:32:36;6.50;;;5.90;;
23404;SDS011;11875;49.356;2.718;2023-06-10T00:35:02;6.22;;;5.55;;
23404;SDS011;11875;49.356;2.718;2023-06-10T00:37:28;7.32;;;5.78;;
23404;SDS011;11875;49.356;2.718;2023-06-10T00:39:55;6.70;;;5.72;;
23404;SDS011;11875;49.356;2.718;2023-06-10T00:42:21;7.20;;;5.97;;
23404;SDS011;11875;49.356;2.718;2023-06-10T00:44:49;6.03;;;5.43;;
23404;SDS011;11875;49.356;2.718;2023-06-10T00:47:15;6.72;;;5.97;;
23404;SDS011;11875;49.356;2.718;2023-06-10T00:49:41;9.23;;;6.18;;
23404;SDS011;11875;49.356;2.718;2023-06-10T00:52:07;10.75;;;6.03;;
23404;SDS011;11875;49.356;2.718;2023-06-10T00:54:33;7.32;;;5.88;;
23404;SDS011;11875;49.356;2.718;2023-06-10T00:57:00;12.10;;;6.13;;
23404;SDS011;11875;49.356;2.718;2023-06-10T00:59:28;6.85;;;6.15;;
23404;SDS011;11875;49.356;2.718;2023-06-10T01:01:54;6.20;;;5.38;;
23404;SDS011;11875;49.356;2.718;2023-06-10T01:04:21;7.88;;;5.70;;
23404;SDS011;11875;49.356;2.718;2023-06-10T01:07:23;8.90;;;5.95;;
23404;SDS011;11875;49.356;2.718;2023-06-10T01:09:54;7.53;;;5.93;;
23404;SDS011;11875;49.356;2.718;2023-06-10T01:12:43;6.53;;;5.90;;
23404;SDS011;11875;49.356;2.718;2023-06-10T01:15:15;8.70;;;5.72;;
23404;SDS011;11875;49.356;2.718;2023-06-10T01:20:31;10.50;;;6.18;;
23404;SDS011;11875;49.356;2.718;2023-06-10T01:23:00;6.32;;;5.72;;
23404;SDS011;11875;49.356;2.718;2023-06-10T01:25:28;10.88;;;6.07;;
23404;SDS011;11875;49.356;2.718;2023-06-10T01:27:55;9.18;;;6.03;;
23404;SDS011;11875;49.356;2.718;2023-06-10T01:30:30;7.45;;;5.93;;
23404;SDS011;11875;49.356;2.718;2023-06-10T01:33:06;6.32;;;5.68;;
23404;SDS011;11875;49.356;2.718;2023-06-10T01:35:34;8.32;;;5.88;;
23404;SDS011;11875;49.356;2.718;2023-06-10T01:38:02;6.45;;;5.85;;
23404;SDS011;11875;49.356;2.718;2023-06-10T01:40:29;9.55;;;6.60;;
23404;SDS011;11875;49.356;2.718;2023-06-10T01:42:55;11.15;;;6.50;;
23404;SDS011;11875;49.356;2.718;2023-06-10T01:45:21;7.45;;;6.57;;
23404;SDS011;11875;49.356;2.718;2023-06-10T01:47:47;7.03;;;6.32;;
23404;SDS011;11875;49.356;2.718;2023-06-10T01:50:12;7.20;;;6.50;;
23404;SDS011;11875;49.356;2.718;2023-06-10T01:52:38;8.95;;;6.93;;
23404;SDS011;11875;49.356;2.718;2023-06-10T01:55:04;7.53;;;6.80;;
23404;SDS011;11875;49.356;2.718;2023-06-10T01:57:30;7.60;;;6.50;;
23404;SDS011;11875;49.356;2.718;2023-06-10T01:59:55;7.65;;;6.80;;
23404;SDS011;11875;49.356;2.718;2023-06-10T02:02:21;7.50;;;6.60;;
23404;SDS011;11875;49.356;2.718;2023-06-10T02:04:47;7.65;;;6.68;;
23404;SDS011;11875;49.356;2.718;2023-06-10T02:07:13;7.93;;;6.60;;
23404;SDS011;11875;49.356;2.718;2023-06-10T02:09:38;9.57;;;6.80;;
23404;SDS011;11875;49.356;2.718;2023-06-10T02:12:05;8.05;;;6.57;;
23404;SDS011;11875;49.356;2.718;2023-06-10T02:14:32;8.77;;;6.82;;
23404;SDS011;11875;49.356;2.718;2023-06-10T02:16:58;6.97;;;6.32;;
23404;SDS011;11875;49.356;2.718;2023-06-10T02:19:23;7.00;;;5.95;;
23404;SDS011;11875;49.356;2.718;2023-06-10T02:21:52;6.45;;;5.85;;
23404;SDS011;11875;49.356;2.718;2023-06-10T02:24:18;8.27;;;6.78;;
23404;SDS011;11875;49.356;2.718;2023-06-10T02:26:43;7.88;;;6.70;;
23404;SDS011;11875;49.356;2.718;2023-06-10T02:29:10;7.57;;;6.18;;
23404;SDS011;11875;49.356;2.718;2023-06-10T02:31:36;7.05;;;6.22;;
23404;SDS011;11875;49.356;2.718;2023-06-10T02:34:02;8.93;;;6.78;;
23404;SDS011;11875;49.356;2.718;2023-06-10T02:36:28;7.10;;;6.35;;
23404;SDS011;11875;49.356;2.718;2023-06-10T02:38:54;7.85;;;6.53;;
23404;SDS011;11875;49.356;2.718;2023-06-10T02:41:20;8.63;;;6.53;;
23404;SDS011;11875;49.356;2.718;2023-06-10T02:43:46;8.50;;;6.90;;
23404;SDS011;11875;49.356;2.718;2023-06-10T02:46:12;8.15;;;6.28;;
23404;SDS011;11875;49.356;2.718;2023-06-10T02:48:45;8.35;;;6.40;;
23404;SDS011;11875;49.356;2.718;2023-06-10T02:51:11;7.32;;;6.50;;
23404;SDS011;11875;49.356;2.718;2023-06-10T02:53:37;7.57;;;6.28;;
23404;SDS011;11875;49.356;2.718;2023-06-10T02:56:02;6.95;;;6.25;;
23404;SDS011;11875;49.356;2.718;2023-06-10T02:58:28;15.52;;;6.85;;
23404;SDS011;11875;49.356;2.718;2023-06-10T03:00:54;8.00;;;6.57;;
23404;SDS011;11875;49.356;2.718;2023-06-10T03:03:20;7.75;;;6.95;;
23404;SDS011;11875;49.356;2.718;2023-06-10T03:05:47;12.18;;;6.70;;
23404;SDS011;11875;49.356;2.718;2023-06-10T03:08:13;9.48;;;6.50;;
23404;SDS011;11875;49.356;2.718;2023-06-10T03:10:39;9.98;;;6.85;;
23404;SDS011;11875;49.356;2.718;2023-06-10T03:13:05;7.22;;;6.53;;
23404;SDS011;11875;49.356;2.718;2023-06-10T03:15:30;7.68;;;6.40;;
23404;SDS011;11875;49.356;2.718;2023-06-10T03:17:58;7.18;;;6.45;;
23404;SDS011;11875;49.356;2.718;2023-06-10T03:20:27;6.95;;;5.97;;
23404;SDS011;11875;49.356;2.718;2023-06-10T03:22:53;14.85;;;6.35;;
23404;SDS011;11875;49.356;2.718;2023-06-10T03:25:19;7.50;;;6.70;;
23404;SDS011;11875;49.356;2.718;2023-06-10T03:27:45;8.32;;;6.28;;
23404;SDS011;11875;49.356;2.718;2023-06-10T03:30:12;9.15;;;6.25;;
23404;SDS011;11875;49.356;2.718;2023-06-10T03:32:38;10.07;;;6.55;;
23404;SDS011;11875;49.356;2.718;2023-06-10T03:35:06;9.18;;;6.40;;
23404;SDS011;11875;49.356;2.718;2023-06-10T03:37:32;10.05;;;6.80;;
23404;SDS011;11875;49.356;2.718;2023-06-10T03:39:57;9.05;;;6.82;;
23404;SDS011;11875;49.356;2.718;2023-06-10T03:42:23;9.88;;;6.43;;
23404;SDS011;11875;49.356;2.718;2023-06-10T03:44:49;7.47;;;6.65;;
23404;SDS011;11875;49.356;2.718;2023-06-10T03:47:14;7.28;;;6.40;;
23404;SDS011;11875;49.356;2.718;2023-06-10T03:49:41;7.68;;;6.18;;
23404;SDS011;11875;49.356;2.718;2023-06-10T03:52:06;7.20;;;6.47;;
23404;SDS011;11875;49.356;2.718;2023-06-10T03:54:32;7.40;;;6.70;;
23404;SDS011;11875;49.356;2.718;2023-06-10T03:57:00;8.75;;;6.78;;
23404;SDS011;11875;49.356;2.718;2023-06-10T03:59:26;8.05;;;6.75;;
23404;SDS011;11875;49.356;2.718;2023-06-10T04:01:51;12.15;;;7.15;;
23404;SDS011;11875;49.356;2.718;2023-06-10T04:04:17;7.57;;;6.78;;
23404;SDS011;11875;49.356;2.718;2023-06-10T04:06:43;8.88;;;6.97;;
23404;SDS011;11875;49.356;2.718;2023-06-10T04:09:09;10.55;;;7.30;;
23404;SDS011;11875;49.356;2.718;2023-06-10T04:11:35;8.10;;;7.30;;
23404;SDS011;11875;49.356;2.718;2023-06-10T04:14:01;8.63;;;7.07;;
23404;SDS011;11875;49.356;2.718;2023-06-10T04:16:27;8.88;;;7.60;;
23404;SDS011;11875;49.356;2.718;2023-06-10T04:18:53;9.40;;;6.95;;
23404;SDS011;11875;49.356;2.718;2023-06-10T04:21:19;7.78;;;6.88;;
23404;SDS011;11875;49.356;2.718;2023-06-10T04:23:45;7.57;;;6.78;;
23404;SDS011;11875;49.356;2.718;2023-06-10T04:26:11;8.73;;;6.90;;
23404;SDS011;11875;49.356;2.718;2023-06-10T04:28:37;9.60;;;6.63;;
23404;SDS011;11875;49.356;2.718;2023-06-10T04:31:03;7.40;;;6.70;;
23404;SDS011;11875;49.356;2.718;2023-06-10T04:33:29;7.55;;;6.85;;
23404;SDS011;11875;49.356;2.718;2023-06-10T04:35:58;9.40;;;7.22;;
23404;SDS011;11875;49.356;2.718;2023-06-10T04:38:24;7.03;;;6.25;;
23404;SDS011;11875;49.356;2.718;2023-06-10T04:40:49;9.52;;;6.97;;
23404;SDS011;11875;49.356;2.718;2023-06-10T04:43:15;9.13;;;6.72;;
23404;SDS011;11875;49.356;2.718;2023-06-10T04:45:41;9.40;;;7.38;;
23404;SDS011;11875;49.356;2.718;2023-06-10T04:48:10;7.05;;;6.35;;
23404;SDS011;11875;49.356;2.718;2023-06-10T04:50:36;7.22;;;6.53;;
23404;SDS011;11875;49.356;2.718;2023-06-10T04:53:02;8.45;;;6.63;;
23404;SDS011;11875;49.356;2.718;2023-06-10T04:55:27;6.97;;;6.18;;
23404;SDS011;11875;49.356;2.718;2023-06-10T04:57:53;7.38;;;6.68;;
23404;SDS011;11875;49.356;2.718;2023-06-10T05:00:19;9.50;;;6.78;;
23404;SDS011;11875;49.356;2.718;2023-06-10T05:02:45;7.88;;;6.60;;
23404;SDS011;11875;49.356;2.718;2023-06-10T05:05:14;8.68;;;6.97;;
23404;SDS011;11875;49.356;2.718;2023-06-10T05:07:41;9.05;;;6.60;;
23404;SDS011;11875;49.356;2.718;2023-06-10T05:10:07;7.28;;;6.20;;
23404;SDS011;11875;49.356;2.718;2023-06-10T05:12:32;7.85;;;6.45;;
23404;SDS011;11875;49.356;2.718;2023-06-10T05:14:58;9.55;;;6.68;;
23404;SDS011;11875;49.356;2.718;2023-06-10T05:17:24;7.32;;;6.00;;
23404;SDS011;11875;49.356;2.718;2023-06-10T05:19:50;7.13;;;6.35;;
23404;SDS011;11875;49.356;2.718;2023-06-10T05:22:16;8.70;;;6.45;;
23404;SDS011;11875;49.356;2.718;2023-06-10T05:24:43;9.05;;;6.05;;
23404;SDS011;11875;49.356;2.718;2023-06-10T05:27:09;10.85;;;6.45;;
23404;SDS011;11875;49.356;2.718;2023-06-10T05:29:35;10.77;;;6.55;;
23404;SDS011;11875;49.356;2.718;2023-06-10T05:32:01;7.65;;;6.05;;
23404;SDS011;11875;49.356;2.718;2023-06-10T05:34:31;8.00;;;6.35;;
23404;SDS011;11875;49.356;2.718;2023-06-10T05:36:56;7.05;;;6.07;;
23404;SDS011;11875;49.356;2.718;2023-06-10T05:39:22;8.40;;;6.32;;
23404;SDS011;11875;49.356;2.718;2023-06-10T05:41:48;7.65;;;6.13;;
23404;SDS011;11875;49.356;2.718;2023-06-10T05:44:13;7.30;;;5.68;;
23404;SDS011;11875;49.356;2.718;2023-06-10T05:46:39;7.78;;;6.22;;
23404;SDS011;11875;49.356;2.718;2023-06-10T05:49:05;9.13;;;6.32;;
23404;SDS011;11875;49.356;2.718;2023-06-10T05:51:30;11.30;;;6.40;;
23404;SDS011;11875;49.356;2.718;2023-06-10T05:53:56;6.85;;;6.20;;
23404;SDS011;11875;49.356;2.718;2023-06-10T05:56:21;6.38;;;5.78;;
23404;SDS011;11875;49.356;2.718;2023-06-10T05:58:48;6.28;;;5.68;;
23404;SDS011;11875;49.356;2.718;2023-06-10T06:01:13;7.45;;;5.85;;
23404;SDS011;11875;49.356;2.718;2023-06-10T06:03:40;7.95;;;5.88;;
23404;SDS011;11875;49.356;2.718;2023-06-10T06:06:05;7.63;;;6.55;;
23404;SDS011;11875;49.356;2.718;2023-06-10T06:08:31;7.22;;;6.03;;
23404;SDS011;11875;49.356;2.718;2023-06-10T06:10:57;6.05;;;5.40;;
23404;SDS011;11875;49.356;2.718;2023-06-10T06:13:23;6.35;;;5.72;;
23404;SDS011;11875;49.356;2.718;2023-06-10T06:15:48;6.50;;;5.55;;
23404;SDS011;11875;49.356;2.718;2023-06-10T06:18:14;7.25;;;5.88;;
23404;SDS011;11875;49.356;2.718;2023-06-10T06:20:40;6.03;;;5.43;;
23404;SDS011;11875;49.356;2.718;2023-06-10T06:23:06;7.13;;;5.85;;
23404;SDS011;11875;49.356;2.718;2023-06-10T06:25:33;8.55;;;5.93;;
23404;SDS011;11875;49.356;2.718;2023-06-10T06:28:00;6.25;;;5.38;;
23404;SDS011;11875;49.356;2.718;2023-06-10T06:30:26;6.50;;;5.90;;
23404;SDS011;11875;49.356;2.718;2023-06-10T06:32:52;8.35;;;5.60;;
23404;SDS011;11875;49.356;2.718;2023-06-10T06:35:18;7.15;;;6.05;;
23404;SDS011;11875;49.356;2.718;2023-06-10T06:37:43;6.43;;;5.63;;
23404;SDS011;11875;49.356;2.718;2023-06-10T06:40:09;7.05;;;5.63;;
23404;SDS011;11875;49.356;2.718;2023-06-10T06:42:35;8.95;;;6.05;;
23404;SDS011;11875;49.356;2.718;2023-06-10T06:45:01;6.53;;;5.07;;
23404;SDS011;11875;49.356;2.718;2023-06-10T06:47:26;5.93;;;5.32;;
23404;SDS011;11875;49.356;2.718;2023-06-10T06:49:52;6.07;;;5.47;;
23404;SDS011;11875;49.356;2.718;2023-06-10T06:52:18;9.20;;;5.75;;
23404;SDS011;11875;49.356;2.718;2023-06-10T06:54:44;7.63;;;5.38;;
23404;SDS011;11875;49.356;2.718;2023-06-10T06:57:09;7.50;;;5.70;;
23404;SDS011;11875;49.356;2.718;2023-06-10T06:59:35;7.43;;;5.00;;
23404;SDS011;11875;49.356;2.718;2023-06-10T07:02:01;7.85;;;5.35;;
23404;SDS011;11875;49.356;2.718;2023-06-10T07:04:27;12.57;;;5.40;;
23404;SDS011;11875;49.356;2.718;2023-06-10T07:06:53;6.90;;;4.72;;
23404;SDS011;11875;49.356;2.718;2023-06-10T07:09:19;13.50;;;4.90;;
23404;SDS011;11875;49.356;2.718;2023-06-10T07:11:45;10.15;;;5.40;;
23404;SDS011;11875;49.356;2.718;2023-06-10T07:14:10;8.88;;;5.20;;
23404;SDS011;11875;49.356;2.718;2023-06-10T07:16:36;7.90;;;4.90;;
23404;SDS011;11875;49.356;2.718;2023-06-10T07:19:01;7.18;;;4.40;;
23404;SDS011;11875;49.356;2.718;2023-06-10T07:21:27;5.03;;;4.40;;
23404;SDS011;11875;49.356;2.718;2023-06-10T07:23:54;6.40;;;4.32;;
23404;SDS011;11875;49.356;2.718;2023-06-10T07:26:21;13.90;;;5.15;;
23404;SDS011;11875;49.356;2.718;2023-06-10T07:28:47;12.48;;;4.82;;
23404;SDS011;11875;49.356;2.718;2023-06-10T07:31:13;5.47;;;4.22;;
23404;SDS011;11875;49.356;2.718;2023-06-10T07:33:39;4.65;;;4.22;;
23404;SDS011;11875;49.356;2.718;2023-06-10T07:36:05;7.30;;;4.45;;
23404;SDS011;11875;49.356;2.718;2023-06-10T07:38:31;9.07;;;3.90;;
23404;SDS011;11875;49.356;2.718;2023-06-10T07:40:57;7.05;;;4.18;;
23404;SDS011;11875;49.356;2.718;2023-06-10T07:43:23;6.07;;;4.75;;
23404;SDS011;11875;49.356;2.718;2023-06-10T07:45:49;9.85;;;4.15;;
23404;SDS011;11875;49.356;2.718;2023-06-10T07:48:14;7.13;;;4.35;;
23404;SDS011;11875;49.356;2.718;2023-06-10T07:50:40;7.00;;;4.63;;
23404;SDS011;11875;49.356;2.718;2023-06-10T07:53:06;7.53;;;4.32;;
23404;SDS011;11875;49.356;2.718;2023-06-10T07:55:31;4.40;;;4.00;;
23404;SDS011;11875;49.356;2.718;2023-06-10T07:57:57;9.80;;;4.13;;
23404;SDS011;11875;49.356;2.718;2023-06-10T08:00:23;19.48;;;5.50;;
23404;SDS011;11875;49.356;2.718;2023-06-10T08:02:48;4.45;;;3.90;;
23404;SDS011;11875;49.356;2.718;2023-06-10T08:05:15;8.32;;;4.00;;
23404;SDS011;11875;49.356;2.718;2023-06-10T08:07:41;5.55;;;4.03;;
23404;SDS011;11875;49.356;2.718;2023-06-10T08:10:07;12.20;;;4.13;;
23404;SDS011;11875;49.356;2.718;2023-06-10T08:12:33;4.05;;;3.65;;
23404;SDS011;11875;49.356;2.718;2023-06-10T08:15:00;4.18;;;3.30;;
23404;SDS011;11875;49.356;2.718;2023-06-10T08:17:25;9.10;;;5.43;;
23404;SDS011;11875;49.356;2.718;2023-06-10T08:19:51;7.22;;;4.20;;
23404;SDS011;11875;49.356;2.718;2023-06-10T08:22:17;8.07;;;3.25;;
23404;SDS011;11875;49.356;2.718;2023-06-10T08:24:42;5.38;;;3.80;;
23404;SDS011;11875;49.356;2.718;2023-06-10T08:27:08;5.70;;;3.65;;
23404;SDS011;11875;49.356;2.718;2023-06-10T08:29:33;4.75;;;3.50;;
23404;SDS011;11875;49.356;2.718;2023-06-10T08:31:59;7.22;;;3.72;;
23404;SDS011;11875;49.356;2.718;2023-06-10T08:34:25;5.00;;;3.42;;
23404;SDS011;11875;49.356;2.718;2023-06-10T08:36:51;13.30;;;3.85;;
23404;SDS011;11875;49.356;2.718;2023-06-10T08:39:18;5.13;;;3.28;;
23404;SDS011;11875;49.356;2.718;2023-06-10T08:41:45;4.95;;;3.10;;
23404;SDS011;11875;49.356;2.718;2023-06-10T08:44:35;5.72;;;3.17;;
23404;SDS011;11875;49.356;2.718;2023-06-10T08:47:09;4.05;;;3.08;;
23404;SDS011;11875;49.356;2.718;2023-06-10T08:49:41;4.18;;;2.80;;
23404;SDS011;11875;49.356;2.718;2023-06-10T08:52:10;4.38;;;3.15;;
23404;SDS011;11875;49.356;2.718;2023-06-10T08:54:42;3.58;;;3.05;;
23404;SDS011;11875;49.356;2.718;2023-06-10T08:57:11;12.95;;;3.00;;
23404;SDS011;11875;49.356;2.718;2023-06-10T08:59:38;4.43;;;3.03;;
23404;SDS011;11875;49.356;2.718;2023-06-10T09:02:04;4.70;;;2.85;;
23404;SDS011;11875;49.356;2.718;2023-06-10T09:04:31;3.35;;;2.47;;
23404;SDS011;11875;49.356;2.718;2023-06-10T09:06:57;3.72;;;2.58;;
23404;SDS011;11875;49.356;2.718;2023-06-10T09:09:23;3.70;;;2.92;;
23404;SDS011;11875;49.356;2.718;2023-06-10T09:11:52;6.47;;;2.75;;
23404;SDS011;11875;49.356;2.718;2023-06-10T09:14:17;3.47;;;2.72;;
23404;SDS011;11875;49.356;2.718;2023-06-10T09:16:43;2.92;;;2.20;;
23404;SDS011;11875;49.356;2.718;2023-06-10T09:19:11;3.00;;;2.70;;
23404;SDS011;11875;49.356;2.718;2023-06-10T09:21:37;9.77;;;2.83;;
23404;SDS011;11875;49.356;2.718;2023-06-10T09:24:03;4.93;;;2.40;;
23404;SDS011;11875;49.356;2.718;2023-06-10T09:26:30;5.13;;;2.88;;
23404;SDS011;11875;49.356;2.718;2023-06-10T09:29:03;3.35;;;2.95;;
23404;SDS011;11875;49.356;2.718;2023-06-10T09:31:30;6.90;;;2.80;;
23404;SDS011;11875;49.356;2.718;2023-06-10T09:34:12;3.38;;;2.28;;
23404;SDS011;11875;49.356;2.718;2023-06-10T09:36:40;5.30;;;2.80;;
23404;SDS011;11875;49.356;2.718;2023-06-10T09:39:15;6.00;;;2.55;;
23404;SDS011;11875;49.356;2.718;2023-06-10T09:41:42;4.75;;;2.58;;
23404;SDS011;11875;49.356;2.718;2023-06-10T09:44:13;5.25;;;2.33;;
23404;SDS011;11875;49.356;2.718;2023-06-10T09:46:46;2.97;;;2.20;;
23404;SDS011;11875;49.356;2.718;2023-06-10T09:49:12;3.15;;;2.22;;
23404;SDS011;11875;49.356;2.718;2023-06-10T09:51:48;3.45;;;2.03;;
23404;SDS011;11875;49.356;2.718;2023-06-10T09:54:18;9.02;;;2.90;;
23404;SDS011;11875;49.356;2.718;2023-06-10T09:56:46;7.43;;;2.35;;
23404;SDS011;11875;49.356;2.718;2023-06-10T09:59:13;4.70;;;2.70;;
23404;SDS011;11875;49.356;2.718;2023-06-10T10:01:38;3.72;;;2.63;;
23404;SDS011;11875;49.356;2.718;2023-06-10T10:04:04;4.60;;;2.75;;
23404;SDS011;11875;49.356;2.718;2023-06-10T10:06:30;7.78;;;2.40;;
23404;SDS011;11875;49.356;2.718;2023-06-10T10:08:56;6.03;;;2.30;;
23404;SDS011;11875;49.356;2.718;2023-06-10T10:11:21;3.85;;;2.38;;
23404;SDS011;11875;49.356;2.718;2023-06-10T10:13:48;2.40;;;2.20;;
23404;SDS011;11875;49.356;2.718;2023-06-10T10:16:19;3.38;;;2.35;;
23404;SDS011;11875;49.356;2.718;2023-06-10T10:18:52;4.93;;;2.58;;
23404;SDS011;11875;49.356;2.718;2023-06-10T10:21:26;4.47;;;2.50;;
23404;SDS011;11875;49.356;2.718;2023-06-10T10:24:05;2.95;;;2.28;;
23404;SDS011;11875;49.356;2.718;2023-06-10T10:26:37;2.65;;;2.25;;
23404;SDS011;11875;49.356;2.718;2023-06-10T10:31:34;3.83;;;2.40;;
23404;SDS011;11875;49.356;2.718;2023-06-10T10:34:02;2.75;;;2.17;;
23404;SDS011;11875;49.356;2.718;2023-06-10T10:36:31;3.97;;;2.50;;
23404;SDS011;11875;49.356;2.718;2023-06-10T10:38:57;4.88;;;2.53;;
23404;SDS011;11875;49.356;2.718;2023-06-10T10:41:26;2.95;;;2.55;;
23404;SDS011;11875;49.356;2.718;2023-06-10T10:43:53;3.25;;;2.30;;
23404;SDS011;11875;49.356;2.718;2023-06-10T10:46:19;11.50;;;2.65;;
23404;SDS011;11875;49.356;2.718;2023-06-10T10:48:45;5.07;;;2.40;;
23404;SDS011;11875;49.356;2.718;2023-06-10T10:51:16;2.63;;;2.40;;
23404;SDS011;11875;49.356;2.718;2023-06-10T10:53:42;2.97;;;2.45;;
23404;SDS011;11875;49.356;2.718;2023-06-10T10:56:12;5.80;;;2.90;;
23404;SDS011;11875;49.356;2.718;2023-06-10T10:58:40;10.10;;;2.60;;
23404;SDS011;11875;49.356;2.718;2023-06-10T11:01:12;4.30;;;2.70;;
23404;SDS011;11875;49.356;2.718;2023-06-10T11:03:43;4.28;;;2.50;;
23404;SDS011;11875;49.356;2.718;2023-06-10T11:06:13;3.47;;;2.63;;
23404;SDS011;11875;49.356;2.718;2023-06-10T11:11:22;4.10;;;2.78;;
23404;SDS011;11875;49.356;2.718;2023-06-10T11:16:38;3.95;;;2.58;;
23404;SDS011;11875;49.356;2.718;2023-06-10T11:19:08;2.92;;;2.60;;
23404;SDS011;11875;49.356;2.718;2023-06-10T11:21:56;3.15;;;2.70;;
23404;SDS011;11875;49.356;2.718;2023-06-10T11:24:24;2.60;;;2.40;;
23404;SDS011;11875;49.356;2.718;2023-06-10T11:26:51;3.78;;;2.97;;
23404;SDS011;11875;49.356;2.718;2023-06-10T11:29:16;2.80;;;2.50;;
23404;SDS011;11875;49.356;2.718;2023-06-10T11:31:46;4.65;;;2.72;;
23404;SDS011;11875;49.356;2.718;2023-06-10T11:34:15;3.88;;;2.83;;
23404;SDS011;11875;49.356;2.718;2023-06-10T11:36:45;3.35;;;2.80;;
23404;SDS011;11875;49.356;2.718;2023-06-10T11:39:11;3.33;;;2.60;;
23404;SDS011;11875;49.356;2.718;2023-06-10T11:41:37;2.90;;;2.53;;
23404;SDS011;11875;49.356;2.718;2023-06-10T11:46:35;3.10;;;2.50;;
23404;SDS011;11875;49.356;2.718;2023-06-10T11:49:01;3.03;;;2.50;;
23404;SDS011;11875;49.356;2.718;2023-06-10T11:51:28;3.20;;;2.70;;
23404;SDS011;11875;49.356;2.718;2023-06-10T11:53:59;4.70;;;2.58;;
23404;SDS011;11875;49.356;2.718;2023-06-10T11:56:26;6.30;;;2.72;;
23404;SDS011;11875;49.356;2.718;2023-06-10T11:58:53;2.90;;;2.60;;
23404;SDS011;11875;49.356;2.718;2023-06-10T12:01:31;4.30;;;2.80;;
23404;SDS011;11875;49.356;2.718;2023-06-10T12:06:23;3.53;;;2.83;;
23404;SDS011;11875;49.356;2.718;2023-06-10T12:08:49;4.40;;;2.97;;
23404;SDS011;11875;49.356;2.718;2023-06-10T12:11:14;4.10;;;2.70;;
23404;SDS011;11875;49.356;2.718;2023-06-10T12:13:46;4.68;;;2.63;;
23404;SDS011;11875;49.356;2.718;2023-06-10T12:16:14;3.65;;;2.72;;
23404;SDS011;11875;49.356;2.718;2023-06-10T12:18:41;4.00;;;2.80;;
23404;SDS011;11875;49.356;2.718;2023-06-10T12:21:20;3.58;;;3.28;;
23404;SDS011;11875;49.356;2.718;2023-06-10T12:24:08;3.55;;;3.25;;
23404;SDS011;11875;49.356;2.718;2023-06-10T12:26:42;3.70;;;3.00;;
23404;SDS011;11875;49.356;2.718;2023-06-10T12:34:20;3.30;;;2.95;;
23404;SDS011;11875;49.356;2.718;2023-06-10T12:37:03;3.65;;;2.97;;
23404;SDS011;11875;49.356;2.718;2023-06-10T12:39:38;4.70;;;4.20;;
23404;SDS011;11875;49.356;2.718;2023-06-10T12:42:04;3.67;;;3.25;;
23404;SDS011;11875;49.356;2.718;2023-06-10T12:44:34;7.55;;;3.53;;
23404;SDS011;11875;49.356;2.718;2023-06-10T12:47:07;4.40;;;3.60;;
23404;SDS011;11875;49.356;2.718;2023-06-10T12:49:33;3.30;;;3.00;;
23404;SDS011;11875;49.356;2.718;2023-06-10T12:52:00;3.80;;;3.30;;
23404;SDS011;11875;49.356;2.718;2023-06-10T12:54:26;3.63;;;3.05;;
23404;SDS011;11875;49.356;2.718;2023-06-10T12:56:51;4.35;;;3.30;;
23404;SDS011;11875;49.356;2.718;2023-06-10T12:59:18;3.20;;;2.90;;
23404;SDS011;11875;49.356;2.718;2023-06-10T13:01:44;5.22;;;3.25;;
23404;SDS011;11875;49.356;2.718;2023-06-10T13:04:16;5.07;;;3.40;;
23404;SDS011;11875;49.356;2.718;2023-06-10T13:06:42;3.78;;;3.20;;
23404;SDS011;11875;49.356;2.718;2023-06-10T13:09:08;4.22;;;3.05;;
23404;SDS011;11875;49.356;2.718;2023-06-10T13:11:34;4.32;;;3.05;;
23404;SDS011;11875;49.356;2.718;2023-06-10T13:14:01;3.53;;;3.22;;
23404;SDS011;11875;49.356;2.718;2023-06-10T13:16:27;5.45;;;3.15;;
23404;SDS011;11875;49.356;2.718;2023-06-10T13:18:53;4.65;;;3.42;;
23404;SDS011;11875;49.356;2.718;2023-06-10T13:21:19;4.05;;;3.25;;
23404;SDS011;11875;49.356;2.718;2023-06-10T13:23:45;4.22;;;3.00;;
23404;SDS011;11875;49.356;2.718;2023-06-10T13:26:13;4.22;;;3.30;;
23404;SDS011;11875;49.356;2.718;2023-06-10T13:28:39;6.15;;;3.13;;
23404;SDS011;11875;49.356;2.718;2023-06-10T13:31:04;5.53;;;3.40;;
23404;SDS011;11875;49.356;2.718;2023-06-10T13:33:30;4.38;;;3.42;;
23404;SDS011;11875;49.356;2.718;2023-06-10T13:35:56;3.72;;;3.20;;
23404;SDS011;11875;49.356;2.718;2023-06-10T13:38:22;5.05;;;3.50;;
23404;SDS011;11875;49.356;2.718;2023-06-10T13:40:47;20.38;;;3.72;;
23404;SDS011;11875;49.356;2.718;2023-06-10T13:43:13;9.30;;;3.58;;
23404;SDS011;11875;49.356;2.718;2023-06-10T13:45:39;3.85;;;3.15;;
23404;SDS011;11875;49.356;2.718;2023-06-10T13:48:04;5.20;;;3.63;;
23404;SDS011;11875;49.356;2.718;2023-06-10T13:50:31;4.80;;;3.33;;
23404;SDS011;11875;49.356;2.718;2023-06-10T13:52:56;3.65;;;3.30;;
23404;SDS011;11875;49.356;2.718;2023-06-10T13:55:22;4.00;;;3.70;;
23404;SDS011;11875;49.356;2.718;2023-06-10T13:57:49;3.90;;;3.22;;
23404;SDS011;11875;49.356;2.718;2023-06-10T14:00:15;3.47;;;3.17;;
23404;SDS011;11875;49.356;2.718;2023-06-10T14:02:41;4.65;;;3.53;;
23404;SDS011;11875;49.356;2.718;2023-06-10T14:05:07;4.53;;;3.70;;
23404;SDS011;11875;49.356;2.718;2023-06-10T14:07:33;3.72;;;3.30;;
23404;SDS011;11875;49.356;2.718;2023-06-10T14:09:59;4.68;;;3.50;;
23404;SDS011;11875;49.356;2.718;2023-06-10T14:12:25;6.05;;;3.50;;
23404;SDS011;11875;49.356;2.718;2023-06-10T14:14:50;3.92;;;3.53;;
23404;SDS011;11875;49.356;2.718;2023-06-10T14:17:16;8.07;;;3.95;;
23404;SDS011;11875;49.356;2.718;2023-06-10T14:19:41;6.35;;;3.30;;
23404;SDS011;11875;49.356;2.718;2023-06-10T14:22:07;4.65;;;3.30;;
23404;SDS011;11875;49.356;2.718;2023-06-10T14:24:33;10.73;;;6.72;;
23404;SDS011;11875;49.356;2.718;2023-06-10T14:27:00;7.70;;;3.80;;
23404;SDS011;11875;49.356;2.718;2023-06-10T14:29:25;4.35;;;3.40;;
23404;SDS011;11875;49.356;2.718;2023-06-10T14:31:53;5.72;;;5.03;;
23404;SDS011;11875;49.356;2.718;2023-06-10T14:34:19;4.20;;;3.80;;
23404;SDS011;11875;49.356;2.718;2023-06-10T14:36:45;5.70;;;3.67;;
23404;SDS011;11875;49.356;2.718;2023-06-10T14:39:11;4.68;;;3.30;;
23404;SDS011;11875;49.356;2.718;2023-06-10T14:41:36;7.35;;;3.92;;
23404;SDS011;11875;49.356;2.718;2023-06-10T14:44:02;4.03;;;3.53;;
23404;SDS011;11875;49.356;2.718;2023-06-10T14:46:28;5.85;;;3.92;;
23404;SDS011;11875;49.356;2.718;2023-06-10T14:48:53;3.83;;;3.50;;
23404;SDS011;11875;49.356;2.718;2023-06-10T14:51:19;3.63;;;3.33;;
23404;SDS011;11875;49.356;2.718;2023-06-10T14:53:45;5.18;;;3.70;;
23404;SDS011;11875;49.356;2.718;2023-06-10T14:56:11;3.80;;;3.38;;
23404;SDS011;11875;49.356;2.718;2023-06-10T14:58:39;4.30;;;3.90;;
23404;SDS011;11875;49.356;2.718;2023-06-10T15:01:04;7.05;;;4.10;;
23404;SDS011;11875;49.356;2.718;2023-06-10T15:03:30;3.80;;;3.50;;
23404;SDS011;11875;49.356;2.718;2023-06-10T15:05:55;3.90;;;3.17;;